sensor_id;sensor_type;location;lat;lon;timestamp;P1;durP1;ratioP1;P2;durP2;ratioP2
72920;SDS011;61064;51.654;5.476;2024-03-02T00:00:33;4.43;;;0.80;;
72920;SDS011;61064;51.654;5.476;2024-03-02T00:02:59;5.27;;;0.83;;
72920;SDS011;61064;51.654;5.476;2024-03-02T00:05:24;4.30;;;0.70;;
72920;SDS011;61064;51.654;5.476;2024-03-02T00:10:21;3.97;;;0.57;;
72920;SDS011;61064;51.654;5.476;2024-03-02T00:12:53;2.63;;;0.50;;
72920;SDS011;61064;51.654;5.476;2024-03-02T00:18:10;4.40;;;0.65;;
72920;SDS011;61064;51.654;5.476;2024-03-02T00:20:37;6.35;;;0.90;;
72920;SDS011;61064;51.654;5.476;2024-03-02T00:23:04;4.00;;;0.50;;
72920;SDS011;61064;51.654;5.476;2024-03-02T00:25:40;1.23;;;0.20;;
72920;SDS011;61064;51.654;5.476;2024-03-02T00:28:21;1.58;;;0.13;;
72920;SDS011;61064;51.654;5.476;2024-03-02T00:33:37;0.82;;;0.10;;
72920;SDS011;61064;51.654;5.476;2024-03-02T00:36:09;1.10;;;0.17;;
72920;SDS011;61064;51.654;5.476;2024-03-02T00:38:41;1.73;;;0.20;;
72920;SDS011;61064;51.654;5.476;2024-03-02T00:41:22;0.98;;;0.10;;
72920;SDS011;61064;51.654;5.476;2024-03-02T00:47:02;1.13;;;0.17;;
72920;SDS011;61064;51.654;5.476;2024-03-02T00:49:28;1.23;;;0.10;;
72920;SDS011;61064;51.654;5.476;2024-03-02T00:51:54;1.02;;;0.10;;
72920;SDS011;61064;51.654;5.476;2024-03-02T00:54:20;1.53;;;0.20;;
72920;SDS011;61064;51.654;5.476;2024-03-02T00:56:48;2.40;;;0.20;;
72920;SDS011;61064;51.654;5.476;2024-03-02T00:59:14;0.95;;;0.10;;
72920;SDS011;61064;51.654;5.476;2024-03-02T01:01:40;0.70;;;0.10;;
72920;SDS011;61064;51.654;5.476;2024-03-02T01:04:05;1.00;;;0.40;;
72920;SDS011;61064;51.654;5.476;2024-03-02T01:06:34;0.90;;;0.10;;
72920;SDS011;61064;51.654;5.476;2024-03-02T01:09:00;1.98;;;0.47;;
72920;SDS011;61064;51.654;5.476;2024-03-02T01:11:27;2.30;;;0.20;;
72920;SDS011;61064;51.654;5.476;2024-03-02T01:13:53;2.20;;;0.20;;
72920;SDS011;61064;51.654;5.476;2024-03-02T01:16:19;0.95;;;0.10;;
72920;SDS011;61064;51.654;5.476;2024-03-02T01:18:45;2.05;;;0.20;;
72920;SDS011;61064;51.654;5.476;2024-03-02T01:21:12;2.33;;;0.20;;
72920;SDS011;61064;51.654;5.476;2024-03-02T01:23:38;1.98;;;0.20;;
72920;SDS011;61064;51.654;5.476;2024-03-02T01:26:04;0.97;;;0.10;;
72920;SDS011;61064;51.654;5.476;2024-03-02T01:28:37;1.52;;;0.20;;
72920;SDS011;61064;51.654;5.476;2024-03-02T01:31:03;1.63;;;0.20;;
72920;SDS011;61064;51.654;5.476;2024-03-02T01:33:28;0.77;;;0.10;;
72920;SDS011;61064;51.654;5.476;2024-03-02T01:35:53;0.65;;;0.10;;
72920;SDS011;61064;51.654;5.476;2024-03-02T01:38:19;1.00;;;0.20;;
72920;SDS011;61064;51.654;5.476;2024-03-02T01:40:47;2.67;;;0.20;;
72920;SDS011;61064;51.654;5.476;2024-03-02T01:43:14;1.80;;;0.20;;
72920;SDS011;61064;51.654;5.476;2024-03-02T01:45:39;0.60;;;0.10;;
72920;SDS011;61064;51.654;5.476;2024-03-02T01:48:05;1.58;;;0.30;;
72920;SDS011;61064;51.654;5.476;2024-03-02T01:50:32;0.87;;;0.20;;
72920;SDS011;61064;51.654;5.476;2024-03-02T01:52:58;1.95;;;0.20;;
72920;SDS011;61064;51.654;5.476;2024-03-02T01:55:24;2.53;;;0.20;;
72920;SDS011;61064;51.654;5.476;2024-03-02T01:57:50;0.50;;;0.10;;
72920;SDS011;61064;51.654;5.476;2024-03-02T02:00:17;2.08;;;0.30;;
72920;SDS011;61064;51.654;5.476;2024-03-02T02:02:50;0.83;;;0.13;;
72920;SDS011;61064;51.654;5.476;2024-03-02T02:05:15;1.10;;;0.10;;
72920;SDS011;61064;51.654;5.476;2024-03-02T02:07:42;2.20;;;0.20;;
72920;SDS011;61064;51.654;5.476;2024-03-02T02:10:08;2.05;;;0.20;;
72920;SDS011;61064;51.654;5.476;2024-03-02T02:12:35;1.35;;;0.20;;
72920;SDS011;61064;51.654;5.476;2024-03-02T02:15:01;3.23;;;0.30;;
72920;SDS011;61064;51.654;5.476;2024-03-02T02:17:26;1.63;;;0.28;;
72920;SDS011;61064;51.654;5.476;2024-03-02T02:19:52;2.07;;;0.40;;
72920;SDS011;61064;51.654;5.476;2024-03-02T02:22:18;1.30;;;0.20;;
72920;SDS011;61064;51.654;5.476;2024-03-02T02:24:44;0.93;;;0.10;;
72920;SDS011;61064;51.654;5.476;2024-03-02T02:27:10;1.33;;;0.20;;
72920;SDS011;61064;51.654;5.476;2024-03-02T02:29:36;1.53;;;0.20;;
72920;SDS011;61064;51.654;5.476;2024-03-02T02:32:01;2.58;;;0.40;;
72920;SDS011;61064;51.654;5.476;2024-03-02T02:34:28;1.13;;;0.20;;
72920;SDS011;61064;51.654;5.476;2024-03-02T02:36:54;1.70;;;0.20;;
72920;SDS011;61064;51.654;5.476;2024-03-02T02:39:20;0.30;;;0.10;;
72920;SDS011;61064;51.654;5.476;2024-03-02T02:41:47;1.85;;;0.20;;
72920;SDS011;61064;51.654;5.476;2024-03-02T02:44:13;1.47;;;0.10;;
72920;SDS011;61064;51.654;5.476;2024-03-02T02:46:39;0.47;;;0.10;;
72920;SDS011;61064;51.654;5.476;2024-03-02T02:49:05;0.68;;;0.10;;
72920;SDS011;61064;51.654;5.476;2024-03-02T02:51:30;0.93;;;0.10;;
72920;SDS011;61064;51.654;5.476;2024-03-02T02:53:56;2.23;;;0.20;;
72920;SDS011;61064;51.654;5.476;2024-03-02T02:56:23;0.65;;;0.10;;
72920;SDS011;61064;51.654;5.476;2024-03-02T02:58:49;1.98;;;0.20;;
72920;SDS011;61064;51.654;5.476;2024-03-02T03:01:15;1.50;;;0.13;;
72920;SDS011;61064;51.654;5.476;2024-03-02T03:04:02;1.83;;;0.20;;
72920;SDS011;61064;51.654;5.476;2024-03-02T03:06:27;0.87;;;0.10;;
72920;SDS011;61064;51.654;5.476;2024-03-02T03:08:53;0.67;;;0.10;;
72920;SDS011;61064;51.654;5.476;2024-03-02T03:11:18;0.98;;;0.10;;
72920;SDS011;61064;51.654;5.476;2024-03-02T03:13:44;0.77;;;0.20;;
72920;SDS011;61064;51.654;5.476;2024-03-02T03:16:09;0.77;;;0.20;;
72920;SDS011;61064;51.654;5.476;2024-03-02T03:18:35;1.25;;;0.20;;
72920;SDS011;61064;51.654;5.476;2024-03-02T03:21:01;2.33;;;0.20;;
72920;SDS011;61064;51.654;5.476;2024-03-02T03:23:28;1.67;;;0.30;;
72920;SDS011;61064;51.654;5.476;2024-03-02T03:25:55;2.53;;;0.35;;
72920;SDS011;61064;51.654;5.476;2024-03-02T03:28:20;1.67;;;0.20;;
72920;SDS011;61064;51.654;5.476;2024-03-02T03:30:46;2.03;;;0.20;;
72920;SDS011;61064;51.654;5.476;2024-03-02T03:33:11;1.07;;;0.20;;
72920;SDS011;61064;51.654;5.476;2024-03-02T03:35:37;2.20;;;0.20;;
72920;SDS011;61064;51.654;5.476;2024-03-02T03:38:02;2.25;;;0.20;;
72920;SDS011;61064;51.654;5.476;2024-03-02T03:40:29;0.90;;;0.17;;
72920;SDS011;61064;51.654;5.476;2024-03-02T03:42:54;1.17;;;0.20;;
72920;SDS011;61064;51.654;5.476;2024-03-02T03:45:22;2.88;;;0.25;;
72920;SDS011;61064;51.654;5.476;2024-03-02T03:47:51;1.03;;;0.10;;
72920;SDS011;61064;51.654;5.476;2024-03-02T03:50:16;2.30;;;0.20;;
72920;SDS011;61064;51.654;5.476;2024-03-02T03:52:42;1.13;;;0.20;;
72920;SDS011;61064;51.654;5.476;2024-03-02T03:55:07;1.03;;;0.13;;
72920;SDS011;61064;51.654;5.476;2024-03-02T03:57:35;0.83;;;0.10;;
72920;SDS011;61064;51.654;5.476;2024-03-02T04:00:00;0.73;;;0.10;;
72920;SDS011;61064;51.654;5.476;2024-03-02T04:02:26;1.35;;;0.20;;
72920;SDS011;61064;51.654;5.476;2024-03-02T04:04:51;1.53;;;0.20;;
72920;SDS011;61064;51.654;5.476;2024-03-02T04:07:17;2.30;;;0.20;;
72920;SDS011;61064;51.654;5.476;2024-03-02T04:09:43;1.05;;;0.10;;
72920;SDS011;61064;51.654;5.476;2024-03-02T04:12:09;1.87;;;0.20;;
72920;SDS011;61064;51.654;5.476;2024-03-02T04:14:36;1.42;;;0.10;;
72920;SDS011;61064;51.654;5.476;2024-03-02T04:17:02;1.05;;;0.10;;
72920;SDS011;61064;51.654;5.476;2024-03-02T04:19:28;1.37;;;0.10;;
72920;SDS011;61064;51.654;5.476;2024-03-02T04:21:53;1.63;;;0.17;;
72920;SDS011;61064;51.654;5.476;2024-03-02T04:24:18;1.80;;;0.20;;
72920;SDS011;61064;51.654;5.476;2024-03-02T04:26:44;2.33;;;0.30;;
72920;SDS011;61064;51.654;5.476;2024-03-02T04:29:09;1.87;;;0.20;;
72920;SDS011;61064;51.654;5.476;2024-03-02T04:31:37;2.42;;;0.20;;
72920;SDS011;61064;51.654;5.476;2024-03-02T04:34:02;1.90;;;0.20;;
72920;SDS011;61064;51.654;5.476;2024-03-02T04:36:27;1.20;;;0.20;;
72920;SDS011;61064;51.654;5.476;2024-03-02T04:38:53;1.35;;;0.20;;
72920;SDS011;61064;51.654;5.476;2024-03-02T04:41:18;1.23;;;0.20;;
72920;SDS011;61064;51.654;5.476;2024-03-02T04:43:44;1.27;;;0.20;;
72920;SDS011;61064;51.654;5.476;2024-03-02T04:46:09;2.70;;;0.10;;
72920;SDS011;61064;51.654;5.476;2024-03-02T04:48:34;0.77;;;0.10;;
72920;SDS011;61064;51.654;5.476;2024-03-02T04:51:00;1.65;;;0.20;;
72920;SDS011;61064;51.654;5.476;2024-03-02T04:53:25;1.17;;;0.10;;
72920;SDS011;61064;51.654;5.476;2024-03-02T04:55:51;1.83;;;0.20;;
72920;SDS011;61064;51.654;5.476;2024-03-02T04:58:19;2.28;;;0.20;;
72920;SDS011;61064;51.654;5.476;2024-03-02T05:00:44;0.40;;;0.10;;
72920;SDS011;61064;51.654;5.476;2024-03-02T05:03:11;1.08;;;0.10;;
72920;SDS011;61064;51.654;5.476;2024-03-02T05:05:36;2.50;;;0.20;;
72920;SDS011;61064;51.654;5.476;2024-03-02T05:08:03;2.45;;;0.10;;
72920;SDS011;61064;51.654;5.476;2024-03-02T05:10:29;1.43;;;0.20;;
72920;SDS011;61064;51.654;5.476;2024-03-02T05:12:54;2.87;;;0.30;;
72920;SDS011;61064;51.654;5.476;2024-03-02T05:15:24;2.57;;;0.20;;
72920;SDS011;61064;51.654;5.476;2024-03-02T05:17:49;1.90;;;0.13;;
72920;SDS011;61064;51.654;5.476;2024-03-02T05:20:15;0.67;;;0.17;;
72920;SDS011;61064;51.654;5.476;2024-03-02T05:22:42;2.97;;;0.40;;
72920;SDS011;61064;51.654;5.476;2024-03-02T05:25:08;4.00;;;0.38;;
72920;SDS011;61064;51.654;5.476;2024-03-02T05:27:36;1.48;;;0.17;;
72920;SDS011;61064;51.654;5.476;2024-03-02T05:30:02;1.57;;;0.13;;
72920;SDS011;61064;51.654;5.476;2024-03-02T05:32:28;0.82;;;0.20;;
72920;SDS011;61064;51.654;5.476;2024-03-02T05:34:54;3.17;;;0.10;;
72920;SDS011;61064;51.654;5.476;2024-03-02T05:37:20;2.03;;;0.17;;
72920;SDS011;61064;51.654;5.476;2024-03-02T05:39:45;0.30;;;0.10;;
72920;SDS011;61064;51.654;5.476;2024-03-02T05:42:10;2.67;;;0.10;;
72920;SDS011;61064;51.654;5.476;2024-03-02T05:44:36;1.58;;;0.20;;
72920;SDS011;61064;51.654;5.476;2024-03-02T05:47:02;2.37;;;0.40;;
72920;SDS011;61064;51.654;5.476;2024-03-02T05:49:32;3.92;;;0.30;;
72920;SDS011;61064;51.654;5.476;2024-03-02T05:51:58;2.43;;;0.23;;
72920;SDS011;61064;51.654;5.476;2024-03-02T05:54:23;1.13;;;0.20;;
72920;SDS011;61064;51.654;5.476;2024-03-02T05:56:48;1.70;;;0.30;;
72920;SDS011;61064;51.654;5.476;2024-03-02T05:59:13;0.97;;;0.20;;
72920;SDS011;61064;51.654;5.476;2024-03-02T06:01:40;1.92;;;0.20;;
72920;SDS011;61064;51.654;5.476;2024-03-02T06:04:08;3.63;;;0.20;;
72920;SDS011;61064;51.654;5.476;2024-03-02T06:06:33;2.10;;;0.20;;
72920;SDS011;61064;51.654;5.476;2024-03-02T06:08:59;3.03;;;0.30;;
72920;SDS011;61064;51.654;5.476;2024-03-02T06:11:25;2.20;;;0.20;;
72920;SDS011;61064;51.654;5.476;2024-03-02T06:13:51;4.70;;;0.20;;
72920;SDS011;61064;51.654;5.476;2024-03-02T06:16:16;1.53;;;0.10;;
72920;SDS011;61064;51.654;5.476;2024-03-02T06:18:41;1.13;;;0.20;;
72920;SDS011;61064;51.654;5.476;2024-03-02T06:21:07;1.63;;;0.20;;
72920;SDS011;61064;51.654;5.476;2024-03-02T06:23:33;3.50;;;0.50;;
72920;SDS011;61064;51.654;5.476;2024-03-02T06:26:00;1.92;;;0.20;;
72920;SDS011;61064;51.654;5.476;2024-03-02T06:28:27;3.53;;;0.40;;
72920;SDS011;61064;51.654;5.476;2024-03-02T06:30:52;1.17;;;0.20;;
72920;SDS011;61064;51.654;5.476;2024-03-02T06:33:18;1.40;;;0.10;;
72920;SDS011;61064;51.654;5.476;2024-03-02T06:35:44;1.43;;;0.20;;
72920;SDS011;61064;51.654;5.476;2024-03-02T06:38:09;2.60;;;0.20;;
72920;SDS011;61064;51.654;5.476;2024-03-02T06:40:34;2.77;;;0.30;;
72920;SDS011;61064;51.654;5.476;2024-03-02T06:43:02;1.48;;;0.20;;
72920;SDS011;61064;51.654;5.476;2024-03-02T06:45:27;2.53;;;0.20;;
72920;SDS011;61064;51.654;5.476;2024-03-02T06:47:53;1.83;;;0.20;;
72920;SDS011;61064;51.654;5.476;2024-03-02T06:50:19;2.63;;;0.20;;
72920;SDS011;61064;51.654;5.476;2024-03-02T06:52:44;2.77;;;0.20;;
72920;SDS011;61064;51.654;5.476;2024-03-02T06:55:09;1.63;;;0.20;;
72920;SDS011;61064;51.654;5.476;2024-03-02T06:57:35;2.77;;;0.23;;
72920;SDS011;61064;51.654;5.476;2024-03-02T07:00:00;2.87;;;0.30;;
72920;SDS011;61064;51.654;5.476;2024-03-02T07:02:26;2.97;;;0.30;;
72920;SDS011;61064;51.654;5.476;2024-03-02T07:04:55;2.83;;;0.20;;
72920;SDS011;61064;51.654;5.476;2024-03-02T07:07:20;2.80;;;0.30;;
72920;SDS011;61064;51.654;5.476;2024-03-02T07:09:46;3.28;;;0.30;;
72920;SDS011;61064;51.654;5.476;2024-03-02T07:12:12;2.60;;;0.20;;
72920;SDS011;61064;51.654;5.476;2024-03-02T07:14:38;1.70;;;0.20;;
72920;SDS011;61064;51.654;5.476;2024-03-02T07:17:22;4.35;;;0.30;;
72920;SDS011;61064;51.654;5.476;2024-03-02T07:19:47;1.80;;;0.30;;
72920;SDS011;61064;51.654;5.476;2024-03-02T07:22:13;3.03;;;0.30;;
72920;SDS011;61064;51.654;5.476;2024-03-02T07:24:39;2.43;;;0.20;;
72920;SDS011;61064;51.654;5.476;2024-03-02T07:27:08;1.20;;;0.20;;
72920;SDS011;61064;51.654;5.476;2024-03-02T07:29:37;2.90;;;0.30;;
72920;SDS011;61064;51.654;5.476;2024-03-02T07:32:03;2.10;;;0.20;;
72920;SDS011;61064;51.654;5.476;2024-03-02T07:34:29;1.50;;;0.20;;
72920;SDS011;61064;51.654;5.476;2024-03-02T07:36:55;1.23;;;0.20;;
72920;SDS011;61064;51.654;5.476;2024-03-02T07:39:20;3.03;;;0.30;;
72920;SDS011;61064;51.654;5.476;2024-03-02T07:41:46;4.37;;;0.33;;
72920;SDS011;61064;51.654;5.476;2024-03-02T07:44:12;2.50;;;0.37;;
72920;SDS011;61064;51.654;5.476;2024-03-02T07:46:50;1.60;;;0.20;;
72920;SDS011;61064;51.654;5.476;2024-03-02T07:49:15;1.60;;;0.13;;
72920;SDS011;61064;51.654;5.476;2024-03-02T07:51:41;3.78;;;0.20;;
72920;SDS011;61064;51.654;5.476;2024-03-02T07:54:07;3.42;;;0.30;;
72920;SDS011;61064;51.654;5.476;2024-03-02T07:56:33;4.40;;;0.60;;
72920;SDS011;61064;51.654;5.476;2024-03-02T07:59:03;3.78;;;0.35;;
72920;SDS011;61064;51.654;5.476;2024-03-02T08:01:29;1.60;;;0.20;;
72920;SDS011;61064;51.654;5.476;2024-03-02T08:03:59;2.30;;;0.27;;
72920;SDS011;61064;51.654;5.476;2024-03-02T08:06:30;1.80;;;0.20;;
72920;SDS011;61064;51.654;5.476;2024-03-02T08:08:56;2.20;;;0.30;;
72920;SDS011;61064;51.654;5.476;2024-03-02T08:11:25;2.35;;;0.20;;
72920;SDS011;61064;51.654;5.476;2024-03-02T08:13:52;4.88;;;0.30;;
72920;SDS011;61064;51.654;5.476;2024-03-02T08:16:19;2.30;;;0.20;;
72920;SDS011;61064;51.654;5.476;2024-03-02T08:18:49;4.55;;;0.30;;
72920;SDS011;61064;51.654;5.476;2024-03-02T08:21:15;3.70;;;0.40;;
72920;SDS011;61064;51.654;5.476;2024-03-02T08:23:42;2.55;;;0.28;;
72920;SDS011;61064;51.654;5.476;2024-03-02T08:26:10;4.32;;;0.30;;
72920;SDS011;61064;51.654;5.476;2024-03-02T08:28:36;2.58;;;0.30;;
72920;SDS011;61064;51.654;5.476;2024-03-02T08:31:02;5.33;;;0.30;;
72920;SDS011;61064;51.654;5.476;2024-03-02T08:33:31;3.45;;;0.30;;
72920;SDS011;61064;51.654;5.476;2024-03-02T08:35:56;3.73;;;0.30;;
72920;SDS011;61064;51.654;5.476;2024-03-02T08:38:22;3.10;;;0.40;;
72920;SDS011;61064;51.654;5.476;2024-03-02T08:40:49;5.00;;;0.43;;
72920;SDS011;61064;51.654;5.476;2024-03-02T08:43:14;4.85;;;0.30;;
72920;SDS011;61064;51.654;5.476;2024-03-02T08:45:40;3.23;;;0.20;;
72920;SDS011;61064;51.654;5.476;2024-03-02T08:48:07;3.65;;;0.38;;
72920;SDS011;61064;51.654;5.476;2024-03-02T08:50:36;6.53;;;0.60;;
72920;SDS011;61064;51.654;5.476;2024-03-02T08:53:03;6.35;;;0.50;;
72920;SDS011;61064;51.654;5.476;2024-03-02T08:55:29;4.97;;;0.50;;
72920;SDS011;61064;51.654;5.476;2024-03-02T08:57:54;5.23;;;0.40;;
72920;SDS011;61064;51.654;5.476;2024-03-02T09:00:20;3.83;;;0.40;;
72920;SDS011;61064;51.654;5.476;2024-03-02T09:02:50;2.40;;;0.30;;
72920;SDS011;61064;51.654;5.476;2024-03-02T09:05:16;3.83;;;0.73;;
72920;SDS011;61064;51.654;5.476;2024-03-02T09:07:42;6.57;;;0.43;;
72920;SDS011;61064;51.654;5.476;2024-03-02T09:10:08;4.20;;;0.30;;
72920;SDS011;61064;51.654;5.476;2024-03-02T09:12:35;3.00;;;0.20;;
72920;SDS011;61064;51.654;5.476;2024-03-02T09:15:01;3.10;;;0.30;;
72920;SDS011;61064;51.654;5.476;2024-03-02T09:17:28;3.05;;;0.20;;
72920;SDS011;61064;51.654;5.476;2024-03-02T09:19:53;3.37;;;0.40;;
72920;SDS011;61064;51.654;5.476;2024-03-02T09:22:20;2.30;;;0.40;;
72920;SDS011;61064;51.654;5.476;2024-03-02T09:24:46;4.50;;;0.43;;
72920;SDS011;61064;51.654;5.476;2024-03-02T09:27:11;3.97;;;0.63;;
72920;SDS011;61064;51.654;5.476;2024-03-02T09:29:37;5.05;;;0.47;;
72920;SDS011;61064;51.654;5.476;2024-03-02T09:32:04;2.80;;;0.30;;
72920;SDS011;61064;51.654;5.476;2024-03-02T09:34:33;4.83;;;0.40;;
72920;SDS011;61064;51.654;5.476;2024-03-02T09:36:59;4.43;;;0.30;;
72920;SDS011;61064;51.654;5.476;2024-03-02T09:39:28;6.25;;;0.25;;
72920;SDS011;61064;51.654;5.476;2024-03-02T09:41:53;4.72;;;0.50;;
72920;SDS011;61064;51.654;5.476;2024-03-02T09:44:19;2.97;;;0.23;;
72920;SDS011;61064;51.654;5.476;2024-03-02T09:46:52;2.85;;;0.30;;
72920;SDS011;61064;51.654;5.476;2024-03-02T09:49:19;5.10;;;0.60;;
72920;SDS011;61064;51.654;5.476;2024-03-02T09:51:46;4.60;;;0.52;;
72920;SDS011;61064;51.654;5.476;2024-03-02T09:54:13;2.30;;;0.27;;
72920;SDS011;61064;51.654;5.476;2024-03-02T09:56:42;5.03;;;0.40;;
72920;SDS011;61064;51.654;5.476;2024-03-02T09:59:07;3.50;;;0.40;;
72920;SDS011;61064;51.654;5.476;2024-03-02T10:01:33;4.33;;;0.70;;
72920;SDS011;61064;51.654;5.476;2024-03-02T10:03:59;3.47;;;0.40;;
72920;SDS011;61064;51.654;5.476;2024-03-02T10:06:25;2.90;;;0.40;;
72920;SDS011;61064;51.654;5.476;2024-03-02T10:08:53;7.57;;;0.77;;
72920;SDS011;61064;51.654;5.476;2024-03-02T10:11:30;6.20;;;0.40;;
72920;SDS011;61064;51.654;5.476;2024-03-02T10:14:10;5.15;;;0.50;;
72920;SDS011;61064;51.654;5.476;2024-03-02T10:16:40;3.22;;;0.40;;
72920;SDS011;61064;51.654;5.476;2024-03-02T10:19:17;5.77;;;1.10;;
72920;SDS011;61064;51.654;5.476;2024-03-02T10:21:47;6.70;;;0.40;;
72920;SDS011;61064;51.654;5.476;2024-03-02T10:24:20;3.88;;;0.40;;
72920;SDS011;61064;51.654;5.476;2024-03-02T10:26:47;5.22;;;0.47;;
72920;SDS011;61064;51.654;5.476;2024-03-02T10:29:13;3.83;;;0.47;;
72920;SDS011;61064;51.654;5.476;2024-03-02T10:31:43;3.13;;;0.30;;
72920;SDS011;61064;51.654;5.476;2024-03-02T10:34:10;3.10;;;0.35;;
72920;SDS011;61064;51.654;5.476;2024-03-02T10:36:36;3.47;;;0.30;;
72920;SDS011;61064;51.654;5.476;2024-03-02T10:39:03;3.10;;;0.20;;
72920;SDS011;61064;51.654;5.476;2024-03-02T10:41:31;3.25;;;0.30;;
72920;SDS011;61064;51.654;5.476;2024-03-02T10:43:59;3.80;;;0.40;;
72920;SDS011;61064;51.654;5.476;2024-03-02T10:46:29;3.72;;;0.35;;
72920;SDS011;61064;51.654;5.476;2024-03-02T10:48:56;6.07;;;0.45;;
72920;SDS011;61064;51.654;5.476;2024-03-02T10:51:24;3.47;;;0.40;;
72920;SDS011;61064;51.654;5.476;2024-03-02T10:53:54;5.50;;;0.95;;
72920;SDS011;61064;51.654;5.476;2024-03-02T10:56:33;6.30;;;0.50;;
72920;SDS011;61064;51.654;5.476;2024-03-02T11:01:39;4.18;;;0.40;;
72920;SDS011;61064;51.654;5.476;2024-03-02T11:04:08;2.37;;;0.20;;
72920;SDS011;61064;51.654;5.476;2024-03-02T11:06:36;4.10;;;0.50;;
72920;SDS011;61064;51.654;5.476;2024-03-02T11:09:06;3.75;;;0.40;;
72920;SDS011;61064;51.654;5.476;2024-03-02T11:11:36;4.22;;;0.38;;
72920;SDS011;61064;51.654;5.476;2024-03-02T11:14:07;2.85;;;0.43;;
72920;SDS011;61064;51.654;5.476;2024-03-02T11:16:36;2.80;;;0.40;;
72920;SDS011;61064;51.654;5.476;2024-03-02T11:19:07;3.55;;;0.40;;
72920;SDS011;61064;51.654;5.476;2024-03-02T11:21:37;5.75;;;0.40;;
72920;SDS011;61064;51.654;5.476;2024-03-02T11:27:02;3.25;;;0.35;;
72920;SDS011;61064;51.654;5.476;2024-03-02T11:32:14;2.47;;;0.30;;
72920;SDS011;61064;51.654;5.476;2024-03-02T11:34:41;3.20;;;0.30;;
72920;SDS011;61064;51.654;5.476;2024-03-02T11:37:11;3.40;;;0.40;;
72920;SDS011;61064;51.654;5.476;2024-03-02T11:39:39;3.67;;;0.38;;
72920;SDS011;61064;51.654;5.476;2024-03-02T11:42:07;5.53;;;0.50;;
72920;SDS011;61064;51.654;5.476;2024-03-02T11:44:39;6.13;;;0.47;;
72920;SDS011;61064;51.654;5.476;2024-03-02T11:47:07;6.18;;;0.43;;
72920;SDS011;61064;51.654;5.476;2024-03-02T11:49:42;4.70;;;0.30;;
72920;SDS011;61064;51.654;5.476;2024-03-02T11:52:14;4.03;;;0.30;;
72920;SDS011;61064;51.654;5.476;2024-03-02T11:54:43;2.90;;;0.30;;
72920;SDS011;61064;51.654;5.476;2024-03-02T11:57:16;5.15;;;0.50;;
72920;SDS011;61064;51.654;5.476;2024-03-02T11:59:47;7.05;;;0.52;;
72920;SDS011;61064;51.654;5.476;2024-03-02T12:02:16;3.90;;;0.60;;
72920;SDS011;61064;51.654;5.476;2024-03-02T12:04:43;5.13;;;0.53;;
72920;SDS011;61064;51.654;5.476;2024-03-02T12:07:11;3.80;;;0.47;;
72920;SDS011;61064;51.654;5.476;2024-03-02T12:09:37;4.93;;;0.50;;
72920;SDS011;61064;51.654;5.476;2024-03-02T12:12:04;3.90;;;0.50;;
72920;SDS011;61064;51.654;5.476;2024-03-02T12:14:36;5.65;;;0.50;;
72920;SDS011;61064;51.654;5.476;2024-03-02T12:17:02;3.05;;;0.40;;
72920;SDS011;61064;51.654;5.476;2024-03-02T12:19:29;3.83;;;0.40;;
72920;SDS011;61064;51.654;5.476;2024-03-02T12:21:58;5.83;;;0.50;;
72920;SDS011;61064;51.654;5.476;2024-03-02T12:24:26;5.57;;;0.40;;
72920;SDS011;61064;51.654;5.476;2024-03-02T12:26:53;4.45;;;0.50;;
72920;SDS011;61064;51.654;5.476;2024-03-02T12:29:20;3.75;;;0.40;;
72920;SDS011;61064;51.654;5.476;2024-03-02T12:31:49;5.28;;;0.50;;
72920;SDS011;61064;51.654;5.476;2024-03-02T12:34:16;4.50;;;0.60;;
72920;SDS011;61064;51.654;5.476;2024-03-02T12:36:42;4.97;;;0.43;;
72920;SDS011;61064;51.654;5.476;2024-03-02T12:39:08;4.43;;;0.50;;
72920;SDS011;61064;51.654;5.476;2024-03-02T12:41:37;5.25;;;0.47;;
72920;SDS011;61064;51.654;5.476;2024-03-02T12:44:03;4.60;;;0.60;;
72920;SDS011;61064;51.654;5.476;2024-03-02T12:46:34;4.38;;;0.47;;
72920;SDS011;61064;51.654;5.476;2024-03-02T12:49:21;4.63;;;0.60;;
72920;SDS011;61064;51.654;5.476;2024-03-02T12:51:47;5.28;;;0.60;;
72920;SDS011;61064;51.654;5.476;2024-03-02T12:54:17;4.13;;;0.70;;
72920;SDS011;61064;51.654;5.476;2024-03-02T12:56:47;6.77;;;0.80;;
72920;SDS011;61064;51.654;5.476;2024-03-02T12:59:21;7.13;;;0.80;;
72920;SDS011;61064;51.654;5.476;2024-03-02T13:01:50;4.72;;;0.75;;
72920;SDS011;61064;51.654;5.476;2024-03-02T13:04:25;3.55;;;0.50;;
72920;SDS011;61064;51.654;5.476;2024-03-02T13:06:53;6.85;;;0.88;;
72920;SDS011;61064;51.654;5.476;2024-03-02T13:09:21;7.50;;;0.70;;
72920;SDS011;61064;51.654;5.476;2024-03-02T13:11:47;6.68;;;0.73;;
72920;SDS011;61064;51.654;5.476;2024-03-02T13:14:14;4.20;;;0.87;;
72920;SDS011;61064;51.654;5.476;2024-03-02T13:16:42;4.95;;;0.60;;
72920;SDS011;61064;51.654;5.476;2024-03-02T13:19:10;6.77;;;0.70;;
72920;SDS011;61064;51.654;5.476;2024-03-02T13:21:36;5.78;;;0.60;;
72920;SDS011;61064;51.654;5.476;2024-03-02T13:24:02;7.28;;;0.88;;
72920;SDS011;61064;51.654;5.476;2024-03-02T13:26:29;4.80;;;0.50;;
72920;SDS011;61064;51.654;5.476;2024-03-02T13:28:54;5.37;;;0.80;;
72920;SDS011;61064;51.654;5.476;2024-03-02T13:31:22;3.97;;;0.60;;
72920;SDS011;61064;51.654;5.476;2024-03-02T13:33:48;6.33;;;0.70;;
72920;SDS011;61064;51.654;5.476;2024-03-02T13:36:15;5.65;;;0.60;;
72920;SDS011;61064;51.654;5.476;2024-03-02T13:38:40;6.20;;;0.90;;
72920;SDS011;61064;51.654;5.476;2024-03-02T13:41:05;6.73;;;1.00;;
72920;SDS011;61064;51.654;5.476;2024-03-02T13:43:31;4.55;;;0.70;;
72920;SDS011;61064;51.654;5.476;2024-03-02T13:46:01;5.07;;;0.50;;
72920;SDS011;61064;51.654;5.476;2024-03-02T13:48:27;3.03;;;0.50;;
72920;SDS011;61064;51.654;5.476;2024-03-02T13:50:54;6.60;;;0.70;;
72920;SDS011;61064;51.654;5.476;2024-03-02T13:53:19;4.57;;;0.60;;
72920;SDS011;61064;51.654;5.476;2024-03-02T13:55:46;4.05;;;0.60;;
72920;SDS011;61064;51.654;5.476;2024-03-02T13:58:11;3.92;;;0.47;;
72920;SDS011;61064;51.654;5.476;2024-03-02T14:00:38;4.60;;;0.70;;
72920;SDS011;61064;51.654;5.476;2024-03-02T14:03:08;5.65;;;0.80;;
72920;SDS011;61064;51.654;5.476;2024-03-02T14:05:33;4.35;;;0.40;;
72920;SDS011;61064;51.654;5.476;2024-03-02T14:07:59;4.27;;;0.50;;
72920;SDS011;61064;51.654;5.476;2024-03-02T14:10:25;4.75;;;0.50;;
72920;SDS011;61064;51.654;5.476;2024-03-02T14:12:53;5.32;;;0.60;;
72920;SDS011;61064;51.654;5.476;2024-03-02T14:15:22;4.40;;;0.70;;
72920;SDS011;61064;51.654;5.476;2024-03-02T14:17:50;3.67;;;0.45;;
72920;SDS011;61064;51.654;5.476;2024-03-02T14:20:15;3.37;;;0.47;;
72920;SDS011;61064;51.654;5.476;2024-03-02T14:22:47;5.38;;;0.47;;
72920;SDS011;61064;51.654;5.476;2024-03-02T14:25:13;4.43;;;0.40;;
72920;SDS011;61064;51.654;5.476;2024-03-02T14:27:38;6.83;;;0.60;;
72920;SDS011;61064;51.654;5.476;2024-03-02T14:30:04;4.07;;;0.57;;
72920;SDS011;61064;51.654;5.476;2024-03-02T14:32:30;3.37;;;0.40;;
72920;SDS011;61064;51.654;5.476;2024-03-02T14:34:56;4.53;;;0.55;;
72920;SDS011;61064;51.654;5.476;2024-03-02T14:37:21;3.17;;;0.40;;
72920;SDS011;61064;51.654;5.476;2024-03-02T14:39:46;4.23;;;0.80;;
72920;SDS011;61064;51.654;5.476;2024-03-02T14:42:12;5.17;;;0.53;;
72920;SDS011;61064;51.654;5.476;2024-03-02T14:44:38;3.00;;;0.40;;
72920;SDS011;61064;51.654;5.476;2024-03-02T14:47:05;3.50;;;0.55;;
72920;SDS011;61064;51.654;5.476;2024-03-02T14:49:32;6.47;;;0.60;;
72920;SDS011;61064;51.654;5.476;2024-03-02T14:52:01;6.13;;;0.70;;
72920;SDS011;61064;51.654;5.476;2024-03-02T14:54:26;4.67;;;0.57;;
72920;SDS011;61064;51.654;5.476;2024-03-02T14:56:51;5.17;;;0.60;;
72920;SDS011;61064;51.654;5.476;2024-03-02T14:59:22;6.90;;;0.60;;
72920;SDS011;61064;51.654;5.476;2024-03-02T15:01:47;5.53;;;0.60;;
72920;SDS011;61064;51.654;5.476;2024-03-02T15:04:13;4.40;;;0.60;;
72920;SDS011;61064;51.654;5.476;2024-03-02T15:06:41;6.15;;;0.75;;